sensor_id;sensor_type;location;lat;lon;timestamp;temperature;humidity
64654;DHT22;51065;48.884;12.598;2023-07-08T00:01:18;14.50;99.90
64654;DHT22;51065;48.884;12.598;2023-07-08T00:03:44;14.30;99.90
64654;DHT22;51065;48.884;12.598;2023-07-08T00:06:20;14.20;99.90
64654;DHT22;51065;48.884;12.598;2023-07-08T00:08:46;14.10;99.90
64654;DHT22;51065;48.884;12.598;2023-07-08T00:11:13;14.00;99.90
64654;DHT22;51065;48.884;12.598;2023-07-08T00:13:39;13.90;99.90
64654;DHT22;51065;48.884;12.598;2023-07-08T00:16:10;13.90;99.90
64654;DHT22;51065;48.884;12.598;2023-07-08T00:18:35;13.80;99.90
64654;DHT22;51065;48.884;12.598;2023-07-08T00:21:01;13.70;99.90
64654;DHT22;51065;48.884;12.598;2023-07-08T00:23:27;13.60;99.90
64654;DHT22;51065;48.884;12.598;2023-07-08T00:25:52;13.60;99.90
64654;DHT22;51065;48.884;12.598;2023-07-08T00:28:20;13.60;99.90
64654;DHT22;51065;48.884;12.598;2023-07-08T00:30:46;13.60;99.90
64654;DHT22;51065;48.884;12.598;2023-07-08T00:33:12;13.50;99.90
64654;DHT22;51065;48.884;12.598;2023-07-08T00:35:43;13.60;99.90
64654;DHT22;51065;48.884;12.598;2023-07-08T00:38:23;13.60;99.90
64654;DHT22;51065;48.884;12.598;2023-07-08T00:43:55;13.50;99.90
64654;DHT22;51065;48.884;12.598;2023-07-08T00:51:36;13.50;99.90
64654;DHT22;51065;48.884;12.598;2023-07-08T00:54:05;13.40;99.90
64654;DHT22;51065;48.884;12.598;2023-07-08T00:56:37;13.40;99.90
64654;DHT22;51065;48.884;12.598;2023-07-08T00:59:36;13.40;99.90
64654;DHT22;51065;48.884;12.598;2023-07-08T01:02:06;13.40;99.90
64654;DHT22;51065;48.884;12.598;2023-07-08T01:04:47;13.40;99.90
64654;DHT22;51065;48.884;12.598;2023-07-08T01:07:14;13.40;99.90
64654;DHT22;51065;48.884;12.598;2023-07-08T01:09:51;13.40;99.90
64654;DHT22;51065;48.884;12.598;2023-07-08T01:12:22;13.30;99.90
64654;DHT22;51065;48.884;12.598;2023-07-08T01:14:49;13.30;99.90
64654;DHT22;51065;48.884;12.598;2023-07-08T01:17:19;13.30;99.90
64654;DHT22;51065;48.884;12.598;2023-07-08T01:19:45;13.30;99.90
64654;DHT22;51065;48.884;12.598;2023-07-08T01:22:12;13.30;99.90
64654;DHT22;51065;48.884;12.598;2023-07-08T01:24:40;13.30;99.90
64654;DHT22;51065;48.884;12.598;2023-07-08T01:27:10;13.20;99.90
64654;DHT22;51065;48.884;12.598;2023-07-08T01:29:36;13.20;99.90
64654;DHT22;51065;48.884;12.598;2023-07-08T01:32:01;13.20;99.90
64654;DHT22;51065;48.884;12.598;2023-07-08T01:34:32;13.10;99.90
64654;DHT22;51065;48.884;12.598;2023-07-08T01:36:59;13.10;99.90
64654;DHT22;51065;48.884;12.598;2023-07-08T01:39:28;13.10;99.90
64654;DHT22;51065;48.884;12.598;2023-07-08T01:41:56;13.10;99.90
64654;DHT22;51065;48.884;12.598;2023-07-08T01:44:32;13.10;99.90
64654;DHT22;51065;48.884;12.598;2023-07-08T01:47:08;13.10;99.90
64654;DHT22;51065;48.884;12.598;2023-07-08T01:49:36;13.10;99.90
64654;DHT22;51065;48.884;12.598;2023-07-08T01:52:02;13.10;99.90
64654;DHT22;51065;48.884;12.598;2023-07-08T01:54:28;13.00;99.90
64654;DHT22;51065;48.884;12.598;2023-07-08T01:56:55;13.00;99.90
64654;DHT22;51065;48.884;12.598;2023-07-08T01:59:21;13.00;99.90
64654;DHT22;51065;48.884;12.598;2023-07-08T02:01:47;13.00;99.90
64654;DHT22;51065;48.884;12.598;2023-07-08T02:04:15;13.00;99.90
64654;DHT22;51065;48.884;12.598;2023-07-08T02:06:41;13.00;99.90
64654;DHT22;51065;48.884;12.598;2023-07-08T02:09:07;13.00;99.90
64654;DHT22;51065;48.884;12.598;2023-07-08T02:11:33;13.00;99.90
64654;DHT22;51065;48.884;12.598;2023-07-08T02:13:58;13.00;99.90
64654;DHT22;51065;48.884;12.598;2023-07-08T02:16:26;13.00;99.90
64654;DHT22;51065;48.884;12.598;2023-07-08T02:18:51;12.90;99.90
64654;DHT22;51065;48.884;12.598;2023-07-08T02:21:17;12.90;99.90
64654;DHT22;51065;48.884;12.598;2023-07-08T02:23:45;12.80;99.90
64654;DHT22;51065;48.884;12.598;2023-07-08T02:26:11;12.90;99.90
64654;DHT22;51065;48.884;12.598;2023-07-08T02:28:37;12.90;99.90
64654;DHT22;51065;48.884;12.598;2023-07-08T02:31:03;12.80;99.90
64654;DHT22;51065;48.884;12.598;2023-07-08T02:33:29;12.80;99.90
64654;DHT22;51065;48.884;12.598;2023-07-08T02:35:58;12.70;99.90
64654;DHT22;51065;48.884;12.598;2023-07-08T02:38:25;12.60;99.90
64654;DHT22;51065;48.884;12.598;2023-07-08T02:40:51;12.60;99.90
64654;DHT22;51065;48.884;12.598;2023-07-08T02:43:16;12.50;99.90
64654;DHT22;51065;48.884;12.598;2023-07-08T02:45:42;12.50;99.90
64654;DHT22;51065;48.884;12.598;2023-07-08T02:48:08;12.60;99.90
64654;DHT22;51065;48.884;12.598;2023-07-08T02:50:33;12.60;99.90
64654;DHT22;51065;48.884;12.598;2023-07-08T02:52:59;12.50;99.90
64654;DHT22;51065;48.884;12.598;2023-07-08T02:55:24;12.40;99.90
64654;DHT22;51065;48.884;12.598;2023-07-08T02:57:50;12.30;99.90
64654;DHT22;51065;48.884;12.598;2023-07-08T03:00:15;12.30;99.90
64654;DHT22;51065;48.884;12.598;2023-07-08T03:02:41;12.30;99.90
64654;DHT22;51065;48.884;12.598;2023-07-08T03:05:07;12.30;99.90
64654;DHT22;51065;48.884;12.598;2023-07-08T03:07:33;12.30;99.90
64654;DHT22;51065;48.884;12.598;2023-07-08T03:09:58;12.30;99.90
64654;DHT22;51065;48.884;12.598;2023-07-08T03:12:24;12.40;99.90
64654;DHT22;51065;48.884;12.598;2023-07-08T03:14:50;12.30;99.90
64654;DHT22;51065;48.884;12.598;2023-07-08T03:17:15;12.20;99.90
64654;DHT22;51065;48.884;12.598;2023-07-08T03:19:42;12.20;99.90
64654;DHT22;51065;48.884;12.598;2023-07-08T03:22:07;12.20;99.90
64654;DHT22;51065;48.884;12.598;2023-07-08T03:24:33;12.30;99.90
64654;DHT22;51065;48.884;12.598;2023-07-08T03:26:59;12.40;99.90
64654;DHT22;51065;48.884;12.598;2023-07-08T03:29:30;12.40;99.90
64654;DHT22;51065;48.884;12.598;2023-07-08T03:31:55;12.40;99.90
64654;DHT22;51065;48.884;12.598;2023-07-08T03:34:21;12.40;99.90
64654;DHT22;51065;48.884;12.598;2023-07-08T03:36:49;12.40;99.90
64654;DHT22;51065;48.884;12.598;2023-07-08T03:39:22;12.40;99.90
64654;DHT22;51065;48.884;12.598;2023-07-08T03:41:48;12.50;99.90
64654;DHT22;51065;48.884;12.598;2023-07-08T03:44:14;12.50;99.90
64654;DHT22;51065;48.884;12.598;2023-07-08T03:46:44;12.60;99.90
64654;DHT22;51065;48.884;12.598;2023-07-08T03:49:10;12.60;99.90
64654;DHT22;51065;48.884;12.598;2023-07-08T03:51:38;12.70;99.90
64654;DHT22;51065;48.884;12.598;2023-07-08T03:54:05;12.80;99.90
64654;DHT22;51065;48.884;12.598;2023-07-08T03:56:32;12.90;99.90
64654;DHT22;51065;48.884;12.598;2023-07-08T03:58:58;12.90;99.90
64654;DHT22;51065;48.884;12.598;2023-07-08T04:01:24;12.90;99.90
64654;DHT22;51065;48.884;12.598;2023-07-08T04:03:55;13.00;99.90
64654;DHT22;51065;48.884;12.598;2023-07-08T04:06:21;13.20;99.90
64654;DHT22;51065;48.884;12.598;2023-07-08T04:08:48;13.30;99.90
64654;DHT22;51065;48.884;12.598;2023-07-08T04:11:16;13.50;99.90
64654;DHT22;51065;48.884;12.598;2023-07-08T04:13:42;13.70;99.90
64654;DHT22;51065;48.884;12.598;2023-07-08T04:16:10;13.90;99.90
64654;DHT22;51065;48.884;12.598;2023-07-08T04:18:39;14.10;99.90
64654;DHT22;51065;48.884;12.598;2023-07-08T04:21:04;14.30;99.90
64654;DHT22;51065;48.884;12.598;2023-07-08T04:23:31;14.50;99.90
64654;DHT22;51065;48.884;12.598;2023-07-08T04:25:57;14.70;99.90
64654;DHT22;51065;48.884;12.598;2023-07-08T04:28:24;14.90;99.90
64654;DHT22;51065;48.884;12.598;2023-07-08T04:30:49;15.00;99.90
64654;DHT22;51065;48.884;12.598;2023-07-08T04:33:16;15.30;99.90
64654;DHT22;51065;48.884;12.598;2023-07-08T04:35:43;16.00;99.90
64654;DHT22;51065;48.884;12.598;2023-07-08T04:38:18;16.80;99.90
64654;DHT22;51065;48.884;12.598;2023-07-08T04:40:44;17.60;99.90
64654;DHT22;51065;48.884;12.598;2023-07-08T04:43:10;17.90;99.90
64654;DHT22;51065;48.884;12.598;2023-07-08T04:45:37;18.20;99.90
64654;DHT22;51065;48.884;12.598;2023-07-08T04:48:04;18.60;99.90
64654;DHT22;51065;48.884;12.598;2023-07-08T04:50:41;19.10;99.90
64654;DHT22;51065;48.884;12.598;2023-07-08T04:53:08;19.90;99.90
64654;DHT22;51065;48.884;12.598;2023-07-08T04:55:56;20.10;99.90
64654;DHT22;51065;48.884;12.598;2023-07-08T04:58:20;20.30;99.90
64654;DHT22;51065;48.884;12.598;2023-07-08T05:00:46;20.60;98.90
64654;DHT22;51065;48.884;12.598;2023-07-08T05:03:12;20.70;99.30
64654;DHT22;51065;48.884;12.598;2023-07-08T05:05:37;20.90;99.50
64654;DHT22;51065;48.884;12.598;2023-07-08T05:08:03;21.20;97.70
64654;DHT22;51065;48.884;12.598;2023-07-08T05:10:28;21.30;98.00
64654;DHT22;51065;48.884;12.598;2023-07-08T05:12:54;21.60;96.60
64654;DHT22;51065;48.884;12.598;2023-07-08T05:15:20;22.00;94.80
64654;DHT22;51065;48.884;12.598;2023-07-08T05:17:45;22.30;92.60
64654;DHT22;51065;48.884;12.598;2023-07-08T05:20:14;22.50;84.90
64654;DHT22;51065;48.884;12.598;2023-07-08T05:22:40;22.60;83.60
64654;DHT22;51065;48.884;12.598;2023-07-08T05:25:06;22.70;80.20
64654;DHT22;51065;48.884;12.598;2023-07-08T05:27:32;22.90;80.10
64654;DHT22;51065;48.884;12.598;2023-07-08T05:30:04;22.90;74.50
64654;DHT22;51065;48.884;12.598;2023-07-08T05:32:31;23.50;79.00
64654;DHT22;51065;48.884;12.598;2023-07-08T05:34:57;23.70;68.20
64654;DHT22;51065;48.884;12.598;2023-07-08T05:37:23;23.80;71.20
64654;DHT22;51065;48.884;12.598;2023-07-08T05:39:52;24.50;59.20
64654;DHT22;51065;48.884;12.598;2023-07-08T05:42:19;25.00;60.40
64654;DHT22;51065;48.884;12.598;2023-07-08T05:44:45;25.20;60.90
64654;DHT22;51065;48.884;12.598;2023-07-08T05:47:10;25.70;56.00
64654;DHT22;51065;48.884;12.598;2023-07-08T05:49:36;26.10;53.40
64654;DHT22;51065;48.884;12.598;2023-07-08T05:52:02;26.30;50.00
64654;DHT22;51065;48.884;12.598;2023-07-08T05:54:33;26.40;47.40
64654;DHT22;51065;48.884;12.598;2023-07-08T05:56:59;26.70;48.10
64654;DHT22;51065;48.884;12.598;2023-07-08T05:59:24;26.90;46.80
64654;DHT22;51065;48.884;12.598;2023-07-08T06:01:50;27.20;47.40
64654;DHT22;51065;48.884;12.598;2023-07-08T06:04:16;27.20;46.90
64654;DHT22;51065;48.884;12.598;2023-07-08T06:06:41;27.30;46.20
64654;DHT22;51065;48.884;12.598;2023-07-08T06:09:07;27.50;46.10
64654;DHT22;51065;48.884;12.598;2023-07-08T06:11:32;27.90;45.00
64654;DHT22;51065;48.884;12.598;2023-07-08T06:13:58;28.00;44.70
64654;DHT22;51065;48.884;12.598;2023-07-08T06:16:23;27.90;43.50
64654;DHT22;51065;48.884;12.598;2023-07-08T06:18:49;27.90;43.70
64654;DHT22;51065;48.884;12.598;2023-07-08T06:21:15;27.70;43.00
64654;DHT22;51065;48.884;12.598;2023-07-08T06:23:40;28.10;43.50
64654;DHT22;51065;48.884;12.598;2023-07-08T06:26:06;28.20;44.60
64654;DHT22;51065;48.884;12.598;2023-07-08T06:28:31;28.50;42.90
64654;DHT22;51065;48.884;12.598;2023-07-08T06:30:57;28.20;41.20
64654;DHT22;51065;48.884;12.598;2023-07-08T06:33:22;28.80;42.00
64654;DHT22;51065;48.884;12.598;2023-07-08T06:35:48;29.10;41.90
64654;DHT22;51065;48.884;12.598;2023-07-08T06:38:13;29.10;41.80
64654;DHT22;51065;48.884;12.598;2023-07-08T06:40:39;29.40;40.90
64654;DHT22;51065;48.884;12.598;2023-07-08T06:43:05;29.70;39.10
64654;DHT22;51065;48.884;12.598;2023-07-08T06:45:30;29.50;41.20
64654;DHT22;51065;48.884;12.598;2023-07-08T06:47:56;29.30;38.20
64654;DHT22;51065;48.884;12.598;2023-07-08T06:50:21;29.10;38.80
64654;DHT22;51065;48.884;12.598;2023-07-08T06:52:47;29.20;39.60
64654;DHT22;51065;48.884;12.598;2023-07-08T06:55:13;29.10;39.30
64654;DHT22;51065;48.884;12.598;2023-07-08T06:57:39;29.20;39.00
64654;DHT22;51065;48.884;12.598;2023-07-08T07:00:09;29.70;38.00
64654;DHT22;51065;48.884;12.598;2023-07-08T07:02:35;30.30;39.60
64654;DHT22;51065;48.884;12.598;2023-07-08T07:05:02;30.10;41.40
64654;DHT22;51065;48.884;12.598;2023-07-08T07:07:28;30.40;40.70
64654;DHT22;51065;48.884;12.598;2023-07-08T07:09:54;30.70;39.80
64654;DHT22;51065;48.884;12.598;2023-07-08T07:12:20;30.60;39.60
64654;DHT22;51065;48.884;12.598;2023-07-08T07:14:45;30.20;41.10
64654;DHT22;51065;48.884;12.598;2023-07-08T07:17:11;30.20;41.20
64654;DHT22;51065;48.884;12.598;2023-07-08T07:19:37;30.10;41.60
64654;DHT22;51065;48.884;12.598;2023-07-08T07:22:02;30.10;41.70
64654;DHT22;51065;48.884;12.598;2023-07-08T07:24:28;30.30;40.80
64654;DHT22;51065;48.884;12.598;2023-07-08T07:26:54;30.90;39.80
64654;DHT22;51065;48.884;12.598;2023-07-08T07:29:21;30.60;39.30
64654;DHT22;51065;48.884;12.598;2023-07-08T07:31:48;31.20;39.60
64654;DHT22;51065;48.884;12.598;2023-07-08T07:34:13;31.20;38.50
64654;DHT22;51065;48.884;12.598;2023-07-08T07:36:39;30.60;38.60
64654;DHT22;51065;48.884;12.598;2023-07-08T07:39:05;30.80;38.00
64654;DHT22;51065;48.884;12.598;2023-07-08T07:41:31;31.30;36.30
64654;DHT22;51065;48.884;12.598;2023-07-08T07:43:56;31.60;35.10
64654;DHT22;51065;48.884;12.598;2023-07-08T07:46:22;31.50;35.30
64654;DHT22;51065;48.884;12.598;2023-07-08T07:48:47;31.80;36.80
64654;DHT22;51065;48.884;12.598;2023-07-08T07:51:13;32.30;35.60
64654;DHT22;51065;48.884;12.598;2023-07-08T07:53:39;32.60;36.00
64654;DHT22;51065;48.884;12.598;2023-07-08T07:56:05;33.10;34.10
64654;DHT22;51065;48.884;12.598;2023-07-08T07:58:31;32.80;32.90
64654;DHT22;51065;48.884;12.598;2023-07-08T08:00:57;32.20;33.80
64654;DHT22;51065;48.884;12.598;2023-07-08T08:03:23;32.40;35.00
64654;DHT22;51065;48.884;12.598;2023-07-08T08:05:49;32.20;36.80
64654;DHT22;51065;48.884;12.598;2023-07-08T08:08:14;31.80;36.50
64654;DHT22;51065;48.884;12.598;2023-07-08T08:10:42;32.00;36.40
64654;DHT22;51065;48.884;12.598;2023-07-08T08:13:08;32.40;35.60
64654;DHT22;51065;48.884;12.598;2023-07-08T08:15:34;32.80;34.60
64654;DHT22;51065;48.884;12.598;2023-07-08T08:17:59;32.40;36.00
64654;DHT22;51065;48.884;12.598;2023-07-08T08:20:25;32.90;33.90
64654;DHT22;51065;48.884;12.598;2023-07-08T08:22:51;32.70;34.80
64654;DHT22;51065;48.884;12.598;2023-07-08T08:25:19;32.50;34.60
64654;DHT22;51065;48.884;12.598;2023-07-08T08:27:45;32.60;35.40
64654;DHT22;51065;48.884;12.598;2023-07-08T08:30:11;33.00;34.30
64654;DHT22;51065;48.884;12.598;2023-07-08T08:32:37;33.20;35.60
64654;DHT22;51065;48.884;12.598;2023-07-08T08:35:04;33.90;33.30
64654;DHT22;51065;48.884;12.598;2023-07-08T08:37:32;33.70;33.10
64654;DHT22;51065;48.884;12.598;2023-07-08T08:39:58;33.80;33.80
64654;DHT22;51065;48.884;12.598;2023-07-08T08:44:52;33.10;34.80
64654;DHT22;51065;48.884;12.598;2023-07-08T08:50:00;32.80;34.60
64654;DHT22;51065;48.884;12.598;2023-07-08T08:52:27;33.20;35.20
64654;DHT22;51065;48.884;12.598;2023-07-08T08:54:52;33.30;33.90
64654;DHT22;51065;48.884;12.598;2023-07-08T08:57:45;33.10;33.50
64654;DHT22;51065;48.884;12.598;2023-07-08T09:00:16;33.40;33.80
64654;DHT22;51065;48.884;12.598;2023-07-08T09:05:18;33.70;34.90
64654;DHT22;51065;48.884;12.598;2023-07-08T09:11:18;33.30;34.10
64654;DHT22;51065;48.884;12.598;2023-07-08T09:13:45;32.30;35.30
64654;DHT22;51065;48.884;12.598;2023-07-08T09:21:26;31.20;36.90
64654;DHT22;51065;48.884;12.598;2023-07-08T09:23:54;31.00;37.20
64654;DHT22;51065;48.884;12.598;2023-07-08T09:26:24;31.10;37.50
64654;DHT22;51065;48.884;12.598;2023-07-08T09:28:51;31.60;38.00
64654;DHT22;51065;48.884;12.598;2023-07-08T09:31:23;32.40;35.20
64654;DHT22;51065;48.884;12.598;2023-07-08T09:33:52;31.90;35.30
64654;DHT22;51065;48.884;12.598;2023-07-08T09:36:23;31.70;36.10
64654;DHT22;51065;48.884;12.598;2023-07-08T09:38:50;31.20;37.40
64654;DHT22;51065;48.884;12.598;2023-07-08T09:41:34;30.90;37.80
64654;DHT22;51065;48.884;12.598;2023-07-08T09:44:24;31.50;37.40
64654;DHT22;51065;48.884;12.598;2023-07-08T09:46:56;31.70;36.70
64654;DHT22;51065;48.884;12.598;2023-07-08T09:49:34;31.60;35.80
64654;DHT22;51065;48.884;12.598;2023-07-08T09:52:01;31.40;37.90
64654;DHT22;51065;48.884;12.598;2023-07-08T09:54:27;31.20;38.30
64654;DHT22;51065;48.884;12.598;2023-07-08T09:57:04;31.00;37.50
64654;DHT22;51065;48.884;12.598;2023-07-08T09:59:39;31.10;38.10
64654;DHT22;51065;48.884;12.598;2023-07-08T10:04:56;32.00;36.60
64654;DHT22;51065;48.884;12.598;2023-07-08T10:07:22;32.60;36.00
64654;DHT22;51065;48.884;12.598;2023-07-08T10:09:51;33.00;33.50
64654;DHT22;51065;48.884;12.598;2023-07-08T10:12:20;33.10;34.70
64654;DHT22;51065;48.884;12.598;2023-07-08T10:14:52;33.10;34.40
64654;DHT22;51065;48.884;12.598;2023-07-08T10:17:20;33.30;33.90
64654;DHT22;51065;48.884;12.598;2023-07-08T10:19:47;33.60;33.60
64654;DHT22;51065;48.884;12.598;2023-07-08T10:22:40;33.90;33.50
64654;DHT22;51065;48.884;12.598;2023-07-08T10:25:16;33.30;32.60
64654;DHT22;51065;48.884;12.598;2023-07-08T10:27:57;32.90;33.50
64654;DHT22;51065;48.884;12.598;2023-07-08T10:30:27;33.20;34.10
64654;DHT22;51065;48.884;12.598;2023-07-08T10:40:53;33.50;31.70
64654;DHT22;51065;48.884;12.598;2023-07-08T10:46:24;33.70;33.70
64654;DHT22;51065;48.884;12.598;2023-07-08T10:57:00;36.30;29.40
64654;DHT22;51065;48.884;12.598;2023-07-08T10:59:48;34.70;30.30
64654;DHT22;51065;48.884;12.598;2023-07-08T11:05:18;34.50;30.80
64654;DHT22;51065;48.884;12.598;2023-07-08T11:10:29;35.40;30.20
64654;DHT22;51065;48.884;12.598;2023-07-08T11:13:06;35.80;30.10
64654;DHT22;51065;48.884;12.598;2023-07-08T11:16:00;36.20;30.50
64654;DHT22;51065;48.884;12.598;2023-07-08T11:18:41;36.60;29.60
64654;DHT22;51065;48.884;12.598;2023-07-08T11:21:11;37.00;28.20
64654;DHT22;51065;48.884;12.598;2023-07-08T11:23:52;36.50;28.10
64654;DHT22;51065;48.884;12.598;2023-07-08T11:26:24;36.30;29.50
64654;DHT22;51065;48.884;12.598;2023-07-08T11:28:54;35.90;29.40
64654;DHT22;51065;48.884;12.598;2023-07-08T11:31:23;35.40;29.90
64654;DHT22;51065;48.884;12.598;2023-07-08T11:33:50;34.90;29.30
64654;DHT22;51065;48.884;12.598;2023-07-08T11:36:17;34.50;28.40
64654;DHT22;51065;48.884;12.598;2023-07-08T11:38:53;34.20;29.40
64654;DHT22;51065;48.884;12.598;2023-07-08T11:41:21;34.60;28.60
64654;DHT22;51065;48.884;12.598;2023-07-08T11:43:57;34.50;30.00
64654;DHT22;51065;48.884;12.598;2023-07-08T11:46:29;34.10;29.50
64654;DHT22;51065;48.884;12.598;2023-07-08T11:49:12;33.70;30.00
64654;DHT22;51065;48.884;12.598;2023-07-08T11:51:41;33.60;29.60
64654;DHT22;51065;48.884;12.598;2023-07-08T11:54:28;33.40;30.50
64654;DHT22;51065;48.884;12.598;2023-07-08T11:57:00;33.70;30.00
64654;DHT22;51065;48.884;12.598;2023-07-08T11:59:37;33.70;29.60
64654;DHT22;51065;48.884;12.598;2023-07-08T12:02:14;33.30;29.60
64654;DHT22;51065;48.884;12.598;2023-07-08T12:07:36;32.60;31.00
64654;DHT22;51065;48.884;12.598;2023-07-08T12:10:11;32.30;31.80
64654;DHT22;51065;48.884;12.598;2023-07-08T12:12:40;32.30;30.60
64654;DHT22;51065;48.884;12.598;2023-07-08T12:15:17;32.90;30.30
64654;DHT22;51065;48.884;12.598;2023-07-08T12:17:47;34.30;31.00
64654;DHT22;51065;48.884;12.598;2023-07-08T12:22:47;35.50;27.50
64654;DHT22;51065;48.884;12.598;2023-07-08T12:25:18;35.80;28.00
64654;DHT22;51065;48.884;12.598;2023-07-08T12:27:45;35.70;28.10
64654;DHT22;51065;48.884;12.598;2023-07-08T12:30:12;36.10;28.50
64654;DHT22;51065;48.884;12.598;2023-07-08T12:32:39;35.50;28.50
64654;DHT22;51065;48.884;12.598;2023-07-08T12:35:15;35.50;27.40
64654;DHT22;51065;48.884;12.598;2023-07-08T12:37:42;35.80;28.10
64654;DHT22;51065;48.884;12.598;2023-07-08T12:40:10;36.00;28.40
64654;DHT22;51065;48.884;12.598;2023-07-08T12:42:36;36.80;27.80
64654;DHT22;51065;48.884;12.598;2023-07-08T12:45:01;37.00;26.40
64654;DHT22;51065;48.884;12.598;2023-07-08T12:47:27;36.70;26.40
64654;DHT22;51065;48.884;12.598;2023-07-08T12:49:53;36.60;26.90
64654;DHT22;51065;48.884;12.598;2023-07-08T12:52:23;36.80;26.20
64654;DHT22;51065;48.884;12.598;2023-07-08T12:54:49;36.60;26.30
64654;DHT22;51065;48.884;12.598;2023-07-08T12:57:16;36.20;26.40
64654;DHT22;51065;48.884;12.598;2023-07-08T12:59:43;36.10;25.70
64654;DHT22;51065;48.884;12.598;2023-07-08T13:02:17;36.20;26.10
64654;DHT22;51065;48.884;12.598;2023-07-08T13:04:45;36.00;25.90
64654;DHT22;51065;48.884;12.598;2023-07-08T13:09:55;35.80;25.70
64654;DHT22;51065;48.884;12.598;2023-07-08T13:12:22;36.00;25.00
64654;DHT22;51065;48.884;12.598;2023-07-08T13:14:51;35.90;25.20
64654;DHT22;51065;48.884;12.598;2023-07-08T13:17:18;35.40;25.40
64654;DHT22;51065;48.884;12.598;2023-07-08T13:19:44;34.90;27.00
64654;DHT22;51065;48.884;12.598;2023-07-08T13:22:19;34.80;26.70
64654;DHT22;51065;48.884;12.598;2023-07-08T13:24:46;35.10;26.30
64654;DHT22;51065;48.884;12.598;2023-07-08T13:27:22;35.70;26.50
64654;DHT22;51065;48.884;12.598;2023-07-08T13:29:54;36.60;25.80
64654;DHT22;51065;48.884;12.598;2023-07-08T13:32:19;37.30;26.00
64654;DHT22;51065;48.884;12.598;2023-07-08T13:34:48;37.20;25.80
64654;DHT22;51065;48.884;12.598;2023-07-08T13:37:15;36.70;26.10
64654;DHT22;51065;48.884;12.598;2023-07-08T13:39:44;36.30;25.50
64654;DHT22;51065;48.884;12.598;2023-07-08T13:42:11;36.10;26.10
64654;DHT22;51065;48.884;12.598;2023-07-08T13:44:45;36.10;26.50
64654;DHT22;51065;48.884;12.598;2023-07-08T13:47:28;36.10;26.50
64654;DHT22;51065;48.884;12.598;2023-07-08T13:50:00;36.70;26.60
64654;DHT22;51065;48.884;12.598;2023-07-08T13:52:30;37.10;26.00
64654;DHT22;51065;48.884;12.598;2023-07-08T13:55:01;36.90;26.20
64654;DHT22;51065;48.884;12.598;2023-07-08T13:57:33;36.80;25.70
64654;DHT22;51065;48.884;12.598;2023-07-08T14:00:00;36.30;25.80
64654;DHT22;51065;48.884;12.598;2023-07-08T14:02:29;36.30;25.50
64654;DHT22;51065;48.884;12.598;2023-07-08T14:04:55;36.20;25.90
64654;DHT22;51065;48.884;12.598;2023-07-08T14:07:25;35.60;26.70
64654;DHT22;51065;48.884;12.598;2023-07-08T14:09:51;35.90;26.90
64654;DHT22;51065;48.884;12.598;2023-07-08T14:12:18;36.10;26.20
64654;DHT22;51065;48.884;12.598;2023-07-08T14:14:44;35.70;26.00
64654;DHT22;51065;48.884;12.598;2023-07-08T14:17:12;36.10;26.20
64654;DHT22;51065;48.884;12.598;2023-07-08T14:19:39;36.10;26.50
64654;DHT22;51065;48.884;12.598;2023-07-08T14:24:37;36.70;25.30
64654;DHT22;51065;48.884;12.598;2023-07-08T14:27:02;37.00;25.60
64654;DHT22;51065;48.884;12.598;2023-07-08T14:29:28;37.20;25.30
64654;DHT22;51065;48.884;12.598;2023-07-08T14:31:54;36.90;25.30
64654;DHT22;51065;48.884;12.598;2023-07-08T14:34:29;36.90;25.10
64654;DHT22;51065;48.884;12.598;2023-07-08T14:36:55;36.40;25.20
64654;DHT22;51065;48.884;12.598;2023-07-08T14:39:20;36.30;26.10
64654;DHT22;51065;48.884;12.598;2023-07-08T14:41:48;36.70;25.60
64654;DHT22;51065;48.884;12.598;2023-07-08T14:44:25;36.20;25.40
64654;DHT22;51065;48.884;12.598;2023-07-08T14:46:52;36.50;26.10
64654;DHT22;51065;48.884;12.598;2023-07-08T14:49:20;36.50;25.20
64654;DHT22;51065;48.884;12.598;2023-07-08T14:51:46;36.10;25.10
64654;DHT22;51065;48.884;12.598;2023-07-08T14:54:12;36.50;25.60
64654;DHT22;51065;48.884;12.598;2023-07-08T14:56:38;36.50;25.20
64654;DHT22;51065;48.884;12.598;2023-07-08T14:59:04;36.70;25.50
64654;DHT22;51065;48.884;12.598;2023-07-08T15:01:31;36.90;25.70
64654;DHT22;51065;48.884;12.598;2023-07-08T15:03:57;36.90;25.30
64654;DHT22;51065;48.884;12.598;2023-07-08T15:06:24;36.60;25.40
64654;DHT22;51065;48.884;12.598;2023-07-08T15:08:50;35.70;25.40
64654;DHT22;51065;48.884;12.598;2023-07-08T15:11:16;34.90;25.20
64654;DHT22;51065;48.884;12.598;2023-07-08T15:13:42;34.00;27.10
64654;DHT22;51065;48.884;12.598;2023-07-08T15:16:14;33.20;26.40
64654;DHT22;51065;48.884;12.598;2023-07-08T15:18:40;33.00;27.50
64654;DHT22;51065;48.884;12.598;2023-07-08T15:21:11;32.70;28.60
64654;DHT22;51065;48.884;12.598;2023-07-08T15:23:38;32.70;27.40
64654;DHT22;51065;48.884;12.598;2023-07-08T15:26:04;32.50;27.40
64654;DHT22;51065;48.884;12.598;2023-07-08T15:28:44;32.50;28.70
64654;DHT22;51065;48.884;12.598;2023-07-08T15:31:15;32.30;29.20
64654;DHT22;51065;48.884;12.598;2023-07-08T15:33:42;32.50;27.60
64654;DHT22;51065;48.884;12.598;2023-07-08T15:36:12;32.60;27.80
64654;DHT22;51065;48.884;12.598;2023-07-08T15:38:39;32.70;28.40
64654;DHT22;51065;48.884;12.598;2023-07-08T15:41:19;32.70;28.50
64654;DHT22;51065;48.884;12.598;2023-07-08T15:43:46;32.90;27.40
64654;DHT22;51065;48.884;12.598;2023-07-08T15:46:12;33.00;27.70
64654;DHT22;51065;48.884;12.598;2023-07-08T15:48:38;33.60;27.50
64654;DHT22;51065;48.884;12.598;2023-07-08T15:51:03;34.00;26.80
64654;DHT22;51065;48.884;12.598;2023-07-08T15:53:29;34.20;26.70
64654;DHT22;51065;48.884;12.598;2023-07-08T15:55:55;34.20;27.30
64654;DHT22;51065;48.884;12.598;2023-07-08T15:58:28;33.80;27.40
64654;DHT22;51065;48.884;12.598;2023-07-08T16:00:55;33.60;26.50
64654;DHT22;51065;48.884;12.598;2023-07-08T16:03:26;33.10;26.70
64654;DHT22;51065;48.884;12.598;2023-07-08T16:05:53;32.90;27.30
64654;DHT22;51065;48.884;12.598;2023-07-08T16:08:20;32.70;27.70
64654;DHT22;51065;48.884;12.598;2023-07-08T16:10:50;32.70;29.40
64654;DHT22;51065;48.884;12.598;2023-07-08T16:13:21;32.90;28.10
64654;DHT22;51065;48.884;12.598;2023-07-08T16:15:47;32.90;27.80
64654;DHT22;51065;48.884;12.598;2023-07-08T16:18:13;33.20;29.00
64654;DHT22;51065;48.884;12.598;2023-07-08T16:20:39;33.10;26.90
64654;DHT22;51065;48.884;12.598;2023-07-08T16:23:04;33.10;27.30
64654;DHT22;51065;48.884;12.598;2023-07-08T16:25:36;33.00;26.70